createdAt,value
2019-04-10T00:01:25.673Z,6.60
2019-04-10T00:03:55.058Z,6.60
2019-04-10T00:06:24.401Z,6.60
2019-04-10T00:08:54.701Z,6.60
2019-04-10T00:11:24.923Z,6.50
2019-04-10T00:13:55.278Z,6.50
2019-04-10T00:16:24.676Z,6.40
2019-04-10T00:18:54.054Z,6.40
2019-04-10T00:21:23.360Z,6.30
2019-04-10T00:23:52.684Z,6.30
2019-04-10T00:26:22.038Z,6.30
2019-04-10T00:28:51.920Z,6.30
2019-04-10T00:31:22.835Z,6.20
2019-04-10T00:33:53.435Z,6.20
2019-04-10T00:36:22.920Z,6.10
2019-04-10T00:38:52.262Z,6.10
2019-04-10T00:41:21.880Z,6.10
2019-04-10T00:43:51.221Z,6.00
2019-04-10T00:46:20.607Z,6.00
2019-04-10T00:48:50.226Z,6.00
2019-04-10T00:51:19.605Z,5.90
2019-04-10T00:53:49.752Z,5.90
2019-04-10T00:56:19.160Z,5.90
2019-04-10T00:58:48.499Z,5.80
2019-04-10T01:01:17.824Z,5.80
2019-04-10T01:03:48.572Z,5.80
2019-04-10T01:06:18.234Z,5.70
2019-04-10T01:08:47.567Z,5.70
2019-04-10T01:11:17.170Z,5.70
2019-04-10T01:13:47.442Z,5.60
2019-04-10T01:16:17.877Z,5.60
2019-04-10T01:18:47.841Z,5.50
2019-04-10T01:21:17.999Z,5.50
2019-04-10T01:23:47.393Z,5.50
2019-04-10T01:26:16.728Z,5.40
2019-04-10T01:28:47.087Z,5.40
2019-04-10T01:31:17.130Z,5.30
2019-04-10T01:33:47.427Z,5.30
2019-04-10T01:36:16.800Z,5.30
2019-04-10T01:38:46.292Z,5.20
2019-04-10T01:41:15.646Z,5.20
2019-04-10T01:43:44.987Z,5.10
2019-04-10T01:46:14.322Z,5.10
2019-04-10T01:48:44.038Z,5.10
2019-04-10T01:51:13.506Z,5.10
2019-04-10T01:53:42.805Z,5.00
2019-04-10T01:56:22.838Z,5.00
2019-04-10T01:58:45.456Z,5.00
2019-04-10T02:01:16.569Z,4.90
2019-04-10T02:03:46.568Z,4.80
2019-04-10T02:06:16.852Z,4.80
2019-04-10T02:08:46.247Z,4.80
2019-04-10T02:11:15.580Z,4.80
2019-04-10T02:13:44.911Z,4.70
2019-04-10T02:16:14.600Z,4.70
2019-04-10T02:18:43.970Z,4.60
2019-04-10T02:21:13.716Z,4.60
2019-04-10T02:23:43.118Z,4.60
2019-04-10T02:26:13.588Z,4.50
2019-04-10T02:28:43.034Z,4.50
2019-04-10T02:31:12.698Z,4.50
2019-04-10T02:33:42.957Z,4.50
2019-04-10T02:36:13.067Z,4.40
2019-04-10T02:38:57.262Z,4.40
2019-04-10T02:41:14.104Z,4.30
2019-04-10T02:43:45.157Z,4.20
2019-04-10T02:46:15.553Z,4.20
2019-04-10T02:48:45.322Z,4.20
2019-04-10T02:51:15.637Z,4.20
2019-04-10T02:53:45.966Z,4.20
2019-04-10T02:56:15.974Z,4.10
2019-04-10T02:58:47.025Z,4.10
2019-04-10T03:01:17.459Z,4.10
2019-04-10T03:03:46.952Z,4.10
2019-04-10T03:06:16.286Z,4.10
2019-04-10T03:09:03.429Z,4.00
2019-04-10T03:11:17.461Z,4.00
2019-04-10T03:13:49.064Z,3.90
2019-04-10T03:16:19.404Z,3.90
2019-04-10T03:18:49.329Z,3.90
2019-04-10T03:21:19.027Z,3.90
2019-04-10T03:23:49.382Z,3.80
2019-04-10T03:26:18.880Z,3.80
2019-04-10T03:28:49.307Z,3.80
2019-04-10T03:31:20.128Z,3.80
2019-04-10T03:33:55.821Z,3.80
2019-04-10T03:36:27.392Z,3.80
2019-04-10T03:39:01.848Z,3.70
2019-04-10T03:41:28.188Z,3.70
2019-04-10T03:43:58.446Z,3.70
2019-04-10T03:46:27.852Z,3.70
2019-04-10T03:48:57.723Z,3.60
2019-04-10T03:51:28.247Z,3.70
2019-04-10T03:53:58.449Z,3.60
2019-04-10T03:56:28.131Z,3.60
2019-04-10T03:58:57.862Z,3.60
2019-04-10T04:01:27.279Z,3.60
2019-04-10T04:03:57.259Z,3.50
2019-04-10T04:06:26.623Z,3.50
2019-04-10T04:09:06.683Z,3.50
2019-04-10T04:11:27.055Z,3.50
2019-04-10T04:13:56.385Z,3.40
2019-04-10T04:16:26.785Z,3.40
2019-04-10T04:18:56.337Z,3.30
2019-04-10T04:21:25.882Z,3.30
2019-04-10T04:23:55.271Z,3.30
2019-04-10T04:26:25.313Z,3.30
2019-04-10T04:28:55.664Z,3.30
2019-04-10T04:31:25.126Z,3.30
2019-04-10T04:33:55.575Z,3.20
2019-04-10T04:36:24.967Z,3.30
2019-04-10T04:38:54.377Z,3.20
2019-04-10T04:41:23.630Z,3.20
2019-04-10T04:43:53.315Z,3.20
2019-04-10T04:46:22.683Z,3.20
2019-04-10T04:48:52.319Z,3.20
2019-04-10T04:51:21.933Z,3.10
2019-04-10T04:53:52.420Z,3.20
2019-04-10T04:56:22.014Z,3.20
2019-04-10T04:58:51.787Z,3.20
2019-04-10T05:01:21.647Z,3.20
2019-04-10T05:03:50.976Z,3.20
2019-04-10T05:06:20.303Z,3.20
2019-04-10T05:08:50.598Z,3.20
2019-04-10T05:11:20.470Z,3.20
2019-04-10T05:13:50.899Z,3.20
2019-04-10T05:16:20.646Z,3.20
2019-04-10T05:18:50.192Z,3.20
2019-04-10T05:21:19.576Z,3.20
2019-04-10T05:23:49.286Z,3.30
2019-04-10T05:26:18.738Z,3.30
2019-04-10T05:28:48.615Z,3.20
2019-04-10T05:31:18.044Z,3.20
2019-04-10T05:33:47.485Z,3.20
2019-04-10T05:36:17.339Z,3.30
2019-04-10T05:38:46.707Z,3.30
2019-04-10T05:41:17.503Z,3.30
2019-04-10T05:43:46.900Z,3.30
2019-04-10T05:46:16.523Z,3.30
2019-04-10T05:48:46.283Z,3.30
2019-04-10T05:51:15.605Z,3.30
2019-04-10T05:53:45.213Z,3.30
2019-04-10T05:56:14.536Z,3.30
2019-04-10T05:58:44.834Z,3.30
2019-04-10T06:01:14.345Z,3.40
2019-04-10T06:03:43.672Z,3.30
2019-04-10T06:06:14.596Z,3.30
2019-04-10T06:08:43.951Z,3.40
2019-04-10T06:11:13.709Z,3.40
2019-04-10T06:13:45.175Z,3.60
2019-04-10T06:16:15.316Z,3.80
2019-04-10T06:18:45.177Z,3.90
2019-04-10T06:21:14.857Z,3.90
2019-04-10T06:23:44.165Z,3.80
2019-04-10T06:26:16.518Z,3.80
2019-04-10T06:28:46.520Z,3.70
2019-04-10T06:31:16.565Z,3.70
2019-04-10T06:33:46.486Z,3.70
2019-04-10T06:36:15.821Z,3.60
2019-04-10T06:38:45.421Z,3.70
2019-04-10T06:41:16.226Z,3.70
2019-04-10T06:43:45.827Z,3.70
2019-04-10T06:46:15.160Z,3.70
2019-04-10T06:48:44.593Z,3.70
2019-04-10T06:51:15.721Z,3.90
2019-04-10T06:53:47.899Z,3.90
2019-04-10T06:56:16.996Z,3.90
2019-04-10T06:58:46.329Z,3.90
2019-04-10T07:01:16.663Z,4.00
2019-04-10T07:03:56.539Z,4.00
2019-04-10T07:06:21.631Z,4.00
2019-04-10T07:08:50.849Z,4.10
2019-04-10T07:11:21.692Z,4.10
2019-04-10T07:13:51.504Z,4.20
2019-04-10T07:16:21.709Z,4.20
2019-04-10T07:18:51.982Z,4.30
2019-04-10T07:21:22.204Z,4.40
2019-04-10T07:23:52.438Z,4.40
2019-04-10T07:26:34.717Z,4.50
2019-04-10T07:28:54.360Z,4.50
2019-04-10T07:31:23.738Z,4.60
2019-04-10T07:33:53.338Z,4.70
2019-04-10T07:36:22.748Z,4.80
2019-04-10T07:38:55.859Z,4.90
2019-04-10T07:41:25.703Z,5.00
2019-04-10T07:43:56.756Z,5.00
2019-04-10T07:46:26.252Z,5.10
2019-04-10T07:48:56.559Z,5.20
2019-04-10T07:51:25.921Z,5.30
2019-04-10T07:53:55.597Z,5.40
2019-04-10T07:56:25.349Z,5.40
2019-04-10T07:58:55.905Z,5.40
2019-04-10T08:01:26.349Z,5.50
2019-04-10T08:03:55.723Z,5.50
2019-04-10T08:06:25.689Z,5.60
2019-04-10T08:08:55.534Z,5.70
2019-04-10T08:11:26.025Z,5.80
2019-04-10T08:13:56.139Z,5.80
2019-04-10T08:16:25.546Z,5.90
2019-04-10T08:18:54.870Z,5.90
2019-04-10T08:21:24.206Z,6.00
2019-04-10T08:23:54.802Z,6.00
2019-04-10T08:26:24.738Z,6.10
2019-04-10T08:28:54.160Z,6.20
2019-04-10T08:31:23.848Z,6.20
2019-04-10T08:33:53.216Z,6.30
2019-04-10T08:36:23.512Z,6.40
2019-04-10T08:38:53.035Z,6.50
2019-04-10T08:41:23.659Z,6.60
2019-04-10T08:43:52.985Z,6.60
2019-04-10T08:46:23.927Z,6.70
2019-04-10T08:48:53.932Z,6.70
2019-04-10T08:51:23.777Z,6.80
2019-04-10T08:53:55.207Z,6.90
2019-04-10T08:56:24.729Z,6.90
2019-04-10T08:58:55.116Z,6.90
2019-04-10T09:01:25.106Z,7.00
2019-04-10T09:03:55.251Z,7.20
2019-04-10T09:06:25.207Z,7.30
2019-04-10T09:08:54.569Z,7.40
2019-04-10T09:11:26.879Z,7.40
2019-04-10T09:13:55.022Z,7.50
2019-04-10T09:16:24.743Z,7.60
2019-04-10T09:18:54.066Z,7.60
2019-04-10T09:21:23.751Z,7.60
2019-04-10T09:23:55.835Z,7.70
2019-04-10T09:26:24.573Z,7.70
2019-04-10T09:28:54.903Z,7.80
2019-04-10T09:31:24.263Z,7.80
2019-04-10T09:33:53.834Z,7.80
2019-04-10T09:36:23.282Z,7.90
2019-04-10T09:38:52.928Z,8.00
2019-04-10T09:41:24.290Z,8.20
2019-04-10T09:43:54.017Z,8.20
2019-04-10T09:46:24.702Z,8.30
2019-04-10T09:48:54.541Z,8.30
2019-04-10T09:51:23.977Z,8.40
2019-04-10T09:53:53.465Z,8.50
2019-04-10T09:56:22.902Z,8.50
2019-04-10T09:58:53.221Z,8.60
2019-04-10T10:01:23.974Z,8.70
2019-04-10T10:03:53.584Z,8.70
2019-04-10T10:06:29.586Z,8.70
2019-04-10T10:08:54.384Z,8.80
2019-04-10T10:11:24.300Z,9.00
2019-04-10T10:13:54.286Z,9.10
2019-04-10T10:16:23.985Z,9.00
2019-04-10T10:18:54.073Z,8.90
2019-04-10T10:21:24.088Z,8.90
2019-04-10T10:23:54.073Z,8.90
2019-04-10T10:26:23.968Z,9.10
2019-04-10T10:28:54.598Z,9.30
2019-04-10T10:31:24.233Z,9.30
2019-04-10T10:33:54.953Z,9.30
2019-04-10T10:36:34.649Z,9.40
2019-04-10T10:39:05.046Z,9.60
2019-04-10T10:41:26.809Z,9.50
2019-04-10T10:43:56.457Z,9.60
2019-04-10T10:46:25.859Z,9.70
2019-04-10T10:48:55.821Z,9.90
2019-04-10T10:51:25.238Z,10.00
2019-04-10T10:53:54.776Z,9.90
2019-04-10T10:56:24.486Z,9.70
2019-04-10T10:58:56.242Z,9.90
2019-04-10T11:01:24.973Z,9.90
2019-04-10T11:03:54.378Z,10.10
2019-04-10T11:06:24.755Z,10.20
2019-04-10T11:08:54.153Z,10.40
2019-04-10T11:11:24.116Z,10.30
2019-04-10T11:13:53.562Z,10.50
2019-04-10T11:16:23.252Z,10.60
2019-04-10T11:18:53.091Z,10.60
2019-04-10T11:21:22.878Z,10.80
2019-04-10T11:23:53.212Z,10.90
2019-04-10T11:26:24.175Z,11.00
2019-04-10T11:28:55.652Z,11.00
2019-04-10T11:31:25.201Z,11.20
2019-04-10T11:33:56.441Z,11.30
2019-04-10T11:36:26.045Z,11.40
2019-04-10T11:39:06.544Z,11.40
2019-04-10T11:41:26.587Z,11.40
2019-04-10T11:43:56.208Z,11.20
2019-04-10T11:46:31.079Z,11.50
2019-04-10T11:48:56.679Z,11.50
2019-04-10T11:51:30.130Z,11.70
2019-04-10T11:53:59.078Z,12.00
2019-04-10T11:56:30.194Z,12.00
2019-04-10T11:59:01.629Z,11.70
2019-04-10T12:01:31.190Z,11.80
2019-04-10T12:04:02.546Z,12.10
2019-04-10T12:06:33.890Z,12.20
2019-04-10T12:09:32.031Z,12.40
2019-04-10T12:11:35.170Z,12.50
2019-04-10T12:14:05.018Z,12.40
2019-04-10T12:16:34.536Z,12.40
2019-04-10T12:19:04.718Z,12.80
2019-04-10T12:21:34.267Z,12.90
2019-04-10T12:24:05.268Z,13.30
2019-04-10T12:26:35.979Z,13.30
2019-04-10T12:29:06.668Z,13.30
2019-04-10T12:31:36.899Z,13.20
2019-04-10T12:34:06.644Z,13.60
2019-04-10T12:36:36.400Z,13.90
2019-04-10T12:39:09.285Z,14.10
2019-04-10T12:41:39.418Z,14.20
2019-04-10T12:44:09.615Z,14.40
2019-04-10T12:46:39.480Z,14.20
2019-04-10T12:49:09.578Z,14.00
2019-04-10T12:51:41.554Z,13.90
2019-04-10T12:54:12.108Z,14.10
2019-04-10T12:56:42.131Z,14.50
2019-04-10T12:59:11.435Z,14.80
2019-04-10T13:01:40.894Z,14.80
2019-04-10T13:04:10.191Z,14.70
2019-04-10T13:06:40.151Z,14.70
2019-04-10T13:09:12.878Z,14.30
2019-04-10T13:11:42.669Z,14.00
2019-04-10T13:14:12.605Z,13.80
2019-04-10T13:16:42.836Z,13.60
2019-04-10T13:19:13.124Z,13.80
2019-04-10T13:21:42.792Z,13.60
2019-04-10T13:24:13.187Z,13.80
2019-04-10T13:26:42.651Z,13.80
2019-04-10T13:29:12.042Z,14.20
2019-04-10T13:31:42.496Z,14.10
2019-04-10T13:34:13.100Z,14.10
2019-04-10T13:36:43.859Z,14.30
2019-04-10T13:39:18.900Z,14.60
2019-04-10T13:41:48.397Z,14.60
2019-04-10T13:44:18.204Z,14.50
2019-04-10T13:46:47.698Z,14.60
2019-04-10T13:49:17.771Z,14.50
2019-04-10T13:51:47.698Z,14.60
2019-04-10T13:54:17.559Z,14.50
2019-04-10T13:56:48.029Z,14.60
2019-04-10T13:59:17.334Z,14.60
2019-04-10T14:01:47.776Z,14.80
2019-04-10T14:04:17.376Z,15.10
2019-04-10T14:06:49.096Z,15.30
2019-04-10T14:09:31.104Z,15.40
2019-04-10T14:11:51.325Z,15.20
2019-04-10T14:14:20.870Z,14.90
2019-04-10T14:16:50.350Z,14.90
2019-04-10T14:19:20.010Z,14.80
2019-04-10T14:21:49.346Z,14.80
2019-04-10T14:24:19.980Z,14.90
2019-04-10T14:27:03.580Z,14.70
2019-04-10T14:29:34.325Z,14.80
2019-04-10T14:32:09.440Z,14.80
2019-04-10T14:34:38.885Z,14.70
2019-04-10T14:37:09.832Z,14.90
2019-04-10T14:39:39.615Z,14.90
2019-04-10T14:42:10.603Z,14.80
2019-04-10T14:44:40.926Z,14.90
2019-04-10T14:47:13.239Z,14.90
2019-04-10T14:49:43.030Z,14.90
2019-04-10T14:52:12.832Z,14.80
2019-04-10T14:54:42.170Z,14.80
2019-04-10T14:57:12.672Z,14.60
2019-04-10T14:59:42.281Z,14.60
2019-04-10T15:02:12.659Z,14.50
2019-04-10T15:04:42.045Z,14.80
2019-04-10T15:07:12.293Z,15.00
2019-04-10T15:09:41.801Z,15.00
2019-04-10T15:12:12.198Z,15.20
2019-04-10T15:14:41.674Z,15.20
2019-04-10T15:17:10.987Z,15.20
2019-04-10T15:19:40.649Z,15.30
2019-04-10T15:22:10.054Z,15.40
2019-04-10T15:24:39.749Z,15.40
2019-04-10T15:27:09.182Z,15.20
2019-04-10T15:29:38.659Z,15.00
2019-04-10T15:32:08.499Z,14.90
2019-04-10T15:34:38.117Z,14.90
2019-04-10T15:37:08.872Z,15.20
2019-04-10T15:39:40.139Z,15.40
2019-04-10T15:42:09.932Z,15.50
2019-04-10T15:44:40.761Z,15.30
2019-04-10T15:47:16.611Z,15.50
2019-04-10T15:49:41.461Z,15.60
2019-04-10T15:52:10.802Z,15.60
2019-04-10T15:54:40.404Z,15.60
2019-04-10T15:57:10.815Z,15.30
2019-04-10T15:59:40.677Z,15.20
2019-04-10T16:02:11.202Z,15.30
2019-04-10T16:04:40.898Z,15.10
2019-04-10T16:07:10.383Z,15.00
2019-04-10T16:09:47.451Z,15.10
2019-04-10T16:12:18.651Z,15.30
2019-04-10T16:14:48.618Z,15.60
2019-04-10T16:17:35.557Z,15.50
2019-04-10T16:20:25.357Z,15.30
2019-04-10T16:23:05.849Z,15.00
2019-04-10T16:25:36.348Z,15.00
2019-04-10T16:28:06.258Z,15.10
2019-04-10T16:30:37.061Z,15.30
2019-04-10T16:33:07.077Z,14.80
2019-04-10T16:35:37.315Z,14.70
2019-04-10T16:38:08.619Z,14.70
2019-04-10T16:40:38.387Z,14.50
2019-04-10T16:43:08.598Z,14.40
2019-04-10T16:45:38.629Z,14.20
2019-04-10T16:48:08.612Z,14.40
2019-04-10T16:50:38.506Z,14.60
2019-04-10T16:53:08.114Z,14.60
2019-04-10T16:55:37.667Z,14.10
2019-04-10T16:58:07.582Z,14.00
2019-04-10T17:00:37.690Z,13.90
2019-04-10T17:03:07.406Z,13.80
2019-04-10T17:05:37.707Z,13.50
2019-04-10T17:08:07.766Z,13.30
2019-04-10T17:10:38.603Z,13.20
2019-04-10T17:13:08.941Z,13.10
2019-04-10T17:15:39.868Z,13.00
2019-04-10T17:18:10.722Z,12.80
2019-04-10T17:20:40.649Z,12.50
2019-04-10T17:23:10.341Z,12.30
2019-04-10T17:25:40.717Z,11.90
2019-04-10T17:28:10.700Z,11.50
2019-04-10T17:30:40.618Z,11.20
2019-04-10T17:33:11.029Z,11.20
2019-04-10T17:35:41.647Z,11.00
2019-04-10T17:38:12.055Z,10.90
2019-04-10T17:40:48.232Z,10.90
2019-04-10T17:43:13.975Z,10.70
2019-04-10T17:45:44.872Z,10.40
2019-04-10T17:48:15.832Z,10.20
2019-04-10T17:50:45.815Z,10.20
2019-04-10T17:53:17.163Z,10.10
2019-04-10T17:55:49.665Z,9.90
2019-04-10T17:58:19.401Z,9.90
2019-04-10T18:00:52.000Z,9.70
2019-04-10T18:03:21.803Z,9.60
2019-04-10T18:05:51.272Z,9.50
2019-04-10T18:08:24.099Z,9.40
2019-04-10T18:10:54.462Z,9.30
2019-04-10T18:13:24.573Z,9.10
2019-04-10T18:15:55.427Z,9.00
2019-04-10T18:18:25.102Z,8.90
2019-04-10T18:20:55.998Z,8.80
2019-04-10T18:23:25.337Z,8.70
2019-04-10T18:25:54.693Z,8.60
2019-04-10T18:28:24.057Z,8.60
2019-04-10T18:30:54.488Z,8.50
2019-04-10T18:33:24.566Z,8.40
2019-04-10T18:35:53.982Z,8.20
2019-04-10T18:38:23.749Z,8.10
2019-04-10T18:41:00.602Z,8.00
2019-04-10T18:43:25.605Z,7.90
2019-04-10T18:46:07.082Z,7.90
2019-04-10T18:48:26.974Z,7.80
2019-04-10T18:50:57.281Z,7.80
2019-04-10T18:53:26.814Z,7.70
2019-04-10T18:55:56.641Z,7.60
2019-04-10T18:58:27.701Z,7.60
2019-04-10T19:00:58.847Z,7.50
2019-04-10T19:03:54.669Z,7.50
2019-04-10T19:06:21.102Z,7.50
2019-04-10T19:09:04.485Z,7.40
2019-04-10T19:11:26.798Z,7.30
2019-04-10T19:13:55.771Z,7.20
2019-04-10T19:16:27.672Z,7.20
2019-04-10T19:18:57.086Z,7.10
2019-04-10T19:21:27.243Z,7.10
2019-04-10T19:23:57.382Z,7.10
2019-04-10T19:26:27.427Z,7.00
2019-04-10T19:28:57.194Z,7.00
2019-04-10T19:31:28.117Z,6.90
2019-04-10T19:33:57.459Z,6.90
2019-04-10T19:36:27.863Z,6.90
2019-04-10T19:38:57.893Z,6.80
2019-04-10T19:41:31.998Z,6.80
2019-04-10T19:43:58.900Z,6.70
2019-04-10T19:46:29.261Z,6.70
2019-04-10T19:48:59.672Z,6.60
2019-04-10T19:51:30.221Z,6.50
2019-04-10T19:54:00.675Z,6.50
2019-04-10T19:56:30.839Z,6.40
2019-04-10T19:59:00.750Z,6.40
2019-04-10T20:01:31.443Z,6.30
2019-04-10T20:04:01.924Z,6.30
2019-04-10T20:06:32.183Z,6.30
2019-04-10T20:09:01.612Z,6.30
2019-04-10T20:11:37.807Z,6.20
2019-04-10T20:14:02.079Z,6.20
2019-04-10T20:16:31.430Z,6.20
2019-04-10T20:19:01.336Z,6.20
2019-04-10T20:21:30.851Z,6.20
2019-04-10T20:24:00.572Z,6.10
2019-04-10T20:26:30.070Z,6.10
2019-04-10T20:28:59.398Z,6.10
2019-04-10T20:31:31.143Z,6.00
2019-04-10T20:34:00.604Z,6.00
2019-04-10T20:36:31.061Z,6.00
2019-04-10T20:39:00.977Z,6.00
2019-04-10T20:41:30.834Z,5.90
2019-04-10T20:44:00.148Z,5.90
2019-04-10T20:46:30.509Z,5.80
2019-04-10T20:49:00.576Z,5.80
2019-04-10T20:51:30.492Z,5.80
2019-04-10T20:54:00.164Z,5.80
2019-04-10T20:56:30.541Z,5.70
2019-04-10T20:59:00.087Z,5.70
2019-04-10T21:01:29.490Z,5.60
2019-04-10T21:03:58.886Z,5.60
2019-04-10T21:06:28.159Z,5.50
2019-04-10T21:08:58.697Z,5.50
2019-04-10T21:11:29.225Z,5.50
2019-04-10T21:13:58.727Z,5.40
2019-04-10T21:16:28.416Z,5.50
2019-04-10T21:18:57.808Z,5.50
2019-04-10T21:21:27.148Z,5.40
2019-04-10T21:23:56.745Z,5.40
2019-04-10T21:26:26.187Z,5.40
2019-04-10T21:28:55.883Z,5.30
2019-04-10T21:31:34.228Z,5.30
2019-04-10T21:34:05.936Z,5.30
2019-04-10T21:36:37.043Z,5.30
2019-04-10T21:39:09.484Z,5.30
2019-04-10T21:41:42.497Z,5.20
2019-04-10T21:44:13.003Z,5.10
2019-04-10T21:46:42.660Z,5.10
2019-04-10T21:49:12.077Z,5.10
2019-04-10T21:51:42.750Z,5.10
2019-04-10T21:54:12.542Z,5.10
2019-04-10T21:56:43.122Z,5.10
2019-04-10T21:59:14.011Z,5.00
2019-04-10T22:01:44.865Z,5.00
2019-04-10T22:04:14.801Z,5.00
2019-04-10T22:06:51.661Z,5.00
2019-04-10T22:09:31.721Z,4.90
2019-04-10T22:12:03.714Z,4.90
2019-04-10T22:14:33.533Z,4.80
2019-04-10T22:17:04.079Z,4.90
2019-04-10T22:19:35.665Z,4.80
2019-04-10T22:22:06.263Z,4.80
2019-04-10T22:24:36.244Z,4.80
2019-04-10T22:27:07.136Z,4.70
2019-04-10T22:29:36.933Z,4.70
2019-04-10T22:32:06.636Z,4.70
2019-04-10T22:34:36.398Z,4.60
2019-04-10T22:37:06.390Z,4.60
2019-04-10T22:39:35.971Z,4.60
2019-04-10T22:42:07.425Z,4.60
2019-04-10T22:44:42.521Z,4.50
2019-04-10T22:47:09.218Z,4.50
2019-04-10T22:49:39.360Z,4.50
2019-04-10T22:52:09.298Z,4.50
2019-04-10T22:54:39.006Z,4.40
2019-04-10T22:57:08.547Z,4.40
2019-04-10T22:59:38.321Z,4.40
2019-04-10T23:02:11.702Z,4.40
2019-04-10T23:04:39.250Z,4.40
2019-04-10T23:07:09.383Z,4.40
2019-04-10T23:09:38.926Z,4.30
2019-04-10T23:12:09.780Z,4.30
2019-04-10T23:14:39.723Z,4.20
2019-04-10T23:17:10.641Z,4.20
2019-04-10T23:19:40.436Z,4.20
2019-04-10T23:22:10.762Z,4.20
2019-04-10T23:24:41.181Z,4.10
2019-04-10T23:27:11.510Z,4.10
2019-04-10T23:29:41.267Z,4.10
2019-04-10T23:32:11.179Z,4.10
2019-04-10T23:34:40.994Z,4.00
2019-04-10T23:37:10.886Z,4.00
2019-04-10T23:39:40.645Z,4.00
2019-04-10T23:42:10.824Z,4.00
2019-04-10T23:44:40.840Z,4.00
2019-04-10T23:47:10.233Z,3.90
2019-04-10T23:49:39.804Z,3.90
2019-04-10T23:52:09.683Z,3.80
2019-04-10T23:54:39.490Z,3.80
2019-04-10T23:57:10.127Z,3.80
2019-04-10T23:59:39.663Z,3.80
